joomla templates top joomla templates template joomla

King Air Abend

Notam

C3641/14 - CUSTOMS AVBL PPR, TEL 0049 9561 92098. 13 NOV 14:46 2014 UNTIL PERM. CREATED: 13 NOV 14:47 2014

Neue Wetteranzeige

Aktuelles Platzwetter Stand 29.05.2017 13:09Z

AvgMinMax
Windrichtung220150290Deg
Windgeschwindigkeit3011kt
Sichtweite>10000m
Temperatur28°C
Taupunkt20°C
Feuchte62%
QNH1015.5hPa
QFE962.0hPa
WolkenSKC

Aerodrome Terminal Information Service (ATIS) Coburg

METAR
EDQC 291250Z AUTO 20005KT 170V230 CAVOK 28/19 Q1015=

METAR und TAF der Umgebung

[Quelle: ADDS]
METAR
EDDF 291250Z 21007KT 180V260 9999 FEW055CB SCT300 32/16 Q1012 NOSIG =
EDDN 291250Z 34003KT 270V070 CAVOK 30/12 Q1015 NOSIG =
EDDE 291250Z VRB03KT 9999 FEW060TCU BKN300 30/16 Q1014 NOSIG =
TAF
EDDF 291100Z 2912/3018 21008KT CAVOK BECMG 2917/2919 VRB03KT BECMG 3006/3008 24008KT TEMPO 3013/3018 25015G25KT 4000 TSRA SCT030CB PROB30 TEMPO 3014/3017 25020G40KT 1500 +TSRAGR BKN008 BKN025CB =
EDDN 291100Z 2912/3012 15003KT CAVOK PROB30 TEMPO 2916/2918 32015G25KT TSRA SCT060CB TEMPO 3003/3009 29015G25KT TSRA SCT060CB BECMG 3005/3007 24005KT =
COR EDDE 291100Z 2912/3012 26005KT CAVOK PROB40 TEMPO 2913/2917 28020G40KT -TSRA SCT025CB BECMG 2919/2921 20008KT BECMG 3007/3009 26011KT =
SR / SS: 03:14 / 19:15 UTC (EDQC 2017-05-29)

Wetterverlauf

Windvorhersage

Verkehrslandeplatz Coburg Brandensteinsebene
Tower
Zur Brandensteinsebene
96450 Coburg

AeroClub Logo 200px

Aero Club Coburg e. V.
Postfach 11 09
96401 Coburg